createdAt,value
2022-08-25T00:00:14.718Z,20.70
2022-08-25T00:01:01.594Z,20.69
2022-08-25T00:02:09.942Z,20.68
2022-08-25T00:02:57.834Z,20.66
2022-08-25T00:03:45.531Z,20.64
2022-08-25T00:04:33.788Z,20.64
2022-08-25T00:05:21.971Z,20.62
2022-08-25T00:06:09.815Z,20.59
2022-08-25T00:07:02.233Z,20.60
2022-08-25T00:07:49.546Z,20.57
2022-08-25T00:08:38.107Z,20.55
2022-08-25T00:09:27.512Z,20.53
2022-08-25T00:10:14.034Z,20.53
2022-08-25T00:11:03.685Z,20.52
2022-08-25T00:11:50.813Z,20.47
2022-08-25T00:12:37.369Z,20.48
2022-08-25T00:13:24.169Z,20.47
2022-08-25T00:14:16.739Z,20.46
2022-08-25T00:15:04.107Z,20.45
2022-08-25T00:15:50.882Z,20.44
2022-08-25T00:16:37.959Z,20.43
2022-08-25T00:17:24.554Z,20.43
2022-08-25T00:18:11.522Z,20.41
2022-08-25T00:19:12.073Z,20.38
2022-08-25T00:19:58.602Z,20.33
2022-08-25T00:20:49.096Z,20.36
2022-08-25T00:21:36.151Z,20.34
2022-08-25T00:22:22.646Z,20.33
2022-08-25T00:23:09.137Z,20.33
2022-08-25T00:23:56.577Z,20.30
2022-08-25T00:24:44.337Z,20.27
2022-08-25T00:25:30.801Z,20.26
2022-08-25T00:26:17.656Z,20.24
2022-08-25T00:27:05.696Z,20.24
2022-08-25T00:27:52.483Z,20.21
2022-08-25T00:28:39.665Z,20.20
2022-08-25T00:29:26.518Z,20.15
2022-08-25T00:30:15.839Z,20.17
2022-08-25T00:31:04.096Z,20.16
2022-08-25T00:31:52.337Z,20.15
2022-08-25T00:32:38.862Z,20.13
2022-08-25T00:33:26.229Z,20.12
2022-08-25T00:34:19.113Z,20.08
2022-08-25T00:35:06.999Z,20.09
2022-08-25T00:35:54.597Z,20.09
2022-08-25T00:36:41.449Z,20.07
2022-08-25T00:37:28.203Z,20.04
2022-08-25T00:38:16.561Z,20.05
2022-08-25T00:39:04.815Z,20.03
2022-08-25T00:39:51.422Z,20.03
2022-08-25T00:40:42.104Z,20.01
2022-08-25T00:41:28.909Z,20.01
2022-08-25T00:42:16.444Z,19.98
2022-08-25T00:43:03.464Z,19.98
2022-08-25T00:44:08.264Z,19.98
2022-08-25T00:44:54.874Z,19.91
2022-08-25T00:45:41.397Z,19.93
2022-08-25T00:46:37.222Z,19.90
2022-08-25T00:47:25.109Z,19.88
2022-08-25T00:48:11.743Z,19.88
2022-08-25T00:49:27.518Z,19.87
2022-08-25T00:50:14.208Z,19.85
2022-08-25T00:51:03.000Z,19.78
2022-08-25T00:52:00.169Z,19.81
2022-08-25T00:52:52.303Z,19.79
2022-08-25T00:53:39.823Z,19.76
2022-08-25T00:54:30.778Z,19.77
2022-08-25T00:55:25.147Z,19.75
2022-08-25T00:56:14.153Z,19.74
2022-08-25T00:57:04.114Z,19.72
2022-08-25T00:58:02.883Z,19.71
2022-08-25T00:58:50.915Z,19.72
2022-08-25T00:59:37.519Z,19.70
2022-08-25T01:00:30.980Z,19.67
2022-08-25T01:01:19.630Z,19.64
2022-08-25T01:02:10.255Z,19.64
2022-08-25T01:03:00.417Z,19.62
2022-08-25T01:03:47.050Z,19.63
2022-08-25T01:04:33.861Z,19.62
2022-08-25T01:05:21.324Z,19.61
2022-08-25T01:06:10.078Z,19.60
2022-08-25T01:07:00.458Z,19.57
2022-08-25T01:07:47.378Z,19.62
2022-08-25T01:08:34.103Z,19.58
2022-08-25T01:09:21.305Z,19.56
2022-08-25T01:10:09.907Z,19.54
2022-08-25T01:11:00.651Z,19.55
2022-08-25T01:11:48.009Z,19.53
2022-08-25T01:12:37.292Z,19.51
2022-08-25T01:13:35.284Z,19.50
2022-08-25T01:14:25.237Z,19.45
2022-08-25T01:15:13.977Z,19.46
2022-08-25T01:16:01.561Z,19.43
2022-08-25T01:16:53.610Z,19.40
2022-08-25T01:17:49.073Z,19.40
2022-08-25T01:18:46.667Z,19.37
2022-08-25T01:19:36.059Z,19.35
2022-08-25T01:20:27.906Z,19.35
2022-08-25T01:21:18.977Z,19.35
2022-08-25T01:22:05.760Z,19.32
2022-08-25T01:22:55.234Z,19.30
2022-08-25T01:23:42.089Z,19.28
2022-08-25T01:24:44.673Z,19.26
2022-08-25T01:25:45.772Z,19.21
2022-08-25T01:26:35.010Z,19.25
2022-08-25T01:27:21.787Z,19.23
2022-08-25T01:28:09.069Z,19.22
2022-08-25T01:29:14.838Z,19.19
2022-08-25T01:30:01.366Z,19.18
2022-08-25T01:30:49.253Z,19.17
2022-08-25T01:31:38.097Z,19.13
2022-08-25T01:32:24.869Z,19.11
2022-08-25T01:33:12.479Z,19.13
2022-08-25T01:33:59.175Z,19.11
2022-08-25T01:34:46.029Z,19.10
2022-08-25T01:35:33.162Z,19.10
2022-08-25T01:36:21.540Z,19.09
2022-08-25T01:37:12.063Z,19.08
2022-08-25T01:38:01.652Z,19.04
2022-08-25T01:38:50.196Z,19.04
2022-08-25T01:39:37.223Z,19.03
2022-08-25T01:40:23.981Z,19.04
2022-08-25T01:41:10.553Z,19.02
2022-08-25T01:42:09.577Z,18.98
2022-08-25T01:43:07.708Z,18.97
2022-08-25T01:43:54.156Z,18.97
2022-08-25T01:44:44.987Z,18.96
2022-08-25T01:45:32.288Z,18.93
2022-08-25T01:46:19.175Z,18.92
2022-08-25T01:47:08.040Z,18.93
2022-08-25T01:47:54.804Z,18.91
2022-08-25T01:48:41.636Z,18.90
2022-08-25T01:49:28.352Z,18.90
2022-08-25T01:50:14.848Z,18.87
2022-08-25T01:51:01.327Z,18.87
2022-08-25T01:52:02.183Z,18.85
2022-08-25T01:52:58.713Z,18.81
2022-08-25T01:53:45.284Z,18.80
2022-08-25T01:54:31.762Z,18.78
2022-08-25T01:55:18.570Z,18.78
2022-08-25T01:56:15.276Z,18.77
2022-08-25T01:57:03.193Z,18.78
2022-08-25T01:57:49.824Z,18.75
2022-08-25T01:58:39.738Z,18.74
2022-08-25T01:59:27.132Z,18.71
2022-08-25T02:00:16.170Z,18.70
2022-08-25T02:01:11.227Z,18.64
2022-08-25T02:02:00.122Z,18.64
2022-08-25T02:02:47.082Z,18.62
2022-08-25T02:03:42.052Z,18.65
2022-08-25T02:04:32.178Z,18.63
2022-08-25T02:05:23.363Z,18.63
2022-08-25T02:06:15.677Z,18.59
2022-08-25T02:07:04.796Z,18.58
2022-08-25T02:07:51.204Z,18.57
2022-08-25T02:08:38.239Z,18.57
2022-08-25T02:09:24.897Z,18.56
2022-08-25T02:10:13.665Z,18.54
2022-08-25T02:11:00.235Z,18.53
2022-08-25T02:11:47.854Z,18.52
2022-08-25T02:12:36.336Z,18.53
2022-08-25T02:13:26.658Z,18.51
2022-08-25T02:14:19.787Z,18.48
2022-08-25T02:15:08.196Z,18.50
2022-08-25T02:15:58.142Z,18.49
2022-08-25T02:16:48.564Z,18.47
2022-08-25T02:17:36.884Z,18.46
2022-08-25T02:18:24.066Z,18.46
2022-08-25T02:19:12.048Z,18.43
2022-08-25T02:19:58.734Z,18.46
2022-08-25T02:20:45.971Z,18.46
2022-08-25T02:21:33.300Z,18.43
2022-08-25T02:22:19.851Z,18.42
2022-08-25T02:23:06.303Z,18.41
2022-08-25T02:23:53.508Z,18.40
2022-08-25T02:24:40.099Z,18.38
2022-08-25T02:25:26.654Z,18.36
2022-08-25T02:26:18.957Z,18.37
2022-08-25T02:27:05.565Z,18.34
2022-08-25T02:27:52.087Z,18.33
2022-08-25T02:28:38.517Z,18.31
2022-08-25T02:29:25.264Z,18.30
2022-08-25T02:30:14.717Z,18.31
2022-08-25T02:31:01.837Z,18.29
2022-08-25T02:31:48.603Z,18.27
2022-08-25T02:32:35.154Z,18.24
2022-08-25T02:33:22.295Z,18.25
2022-08-25T02:34:10.768Z,18.24
2022-08-25T02:34:57.244Z,18.22
2022-08-25T02:35:44.752Z,18.20
2022-08-25T02:36:32.269Z,18.16
2022-08-25T02:37:18.819Z,18.19
2022-08-25T02:38:06.507Z,18.19
2022-08-25T02:38:53.232Z,18.16
2022-08-25T02:39:40.347Z,18.17
2022-08-25T02:40:27.538Z,18.19
2022-08-25T02:41:20.072Z,18.18
2022-08-25T02:42:06.644Z,18.17
2022-08-25T02:42:55.407Z,18.15
2022-08-25T02:43:44.363Z,18.15
2022-08-25T02:44:31.704Z,18.11
2022-08-25T02:45:19.143Z,18.11
2022-08-25T02:46:06.257Z,18.10
2022-08-25T02:46:53.803Z,18.10
2022-08-25T02:47:41.029Z,18.09
2022-08-25T02:48:28.444Z,18.09
2022-08-25T02:49:14.932Z,18.05
2022-08-25T02:50:01.442Z,18.06
2022-08-25T02:50:51.616Z,18.06
2022-08-25T02:51:38.837Z,18.05
2022-08-25T02:52:25.393Z,18.05
2022-08-25T02:53:13.101Z,18.04
2022-08-25T02:54:02.240Z,18.03
2022-08-25T02:54:48.867Z,17.96
2022-08-25T02:55:35.946Z,18.00
2022-08-25T02:56:22.403Z,17.99
2022-08-25T02:57:11.674Z,17.98
2022-08-25T02:57:58.147Z,17.97
2022-08-25T02:58:46.067Z,17.96
2022-08-25T02:59:32.927Z,17.97
2022-08-25T03:00:20.962Z,17.94
2022-08-25T03:01:12.889Z,17.91
2022-08-25T03:01:59.581Z,17.89
2022-08-25T03:02:47.408Z,17.84
2022-08-25T03:03:38.766Z,17.83
2022-08-25T03:04:26.041Z,17.81
2022-08-25T03:05:15.027Z,17.81
2022-08-25T03:06:01.611Z,17.81
2022-08-25T03:06:48.427Z,17.82
2022-08-25T03:07:36.463Z,17.80
2022-08-25T03:08:24.311Z,17.85
2022-08-25T03:09:11.326Z,17.87
2022-08-25T03:09:57.772Z,17.88
2022-08-25T03:10:44.742Z,17.84
2022-08-25T03:11:31.686Z,17.87
2022-08-25T03:12:18.200Z,17.89
2022-08-25T03:13:05.480Z,17.89
2022-08-25T03:13:52.166Z,17.89
2022-08-25T03:14:39.615Z,17.90
2022-08-25T03:15:28.832Z,17.90
2022-08-25T03:16:18.207Z,17.89
2022-08-25T03:17:08.732Z,17.89
2022-08-25T03:17:56.027Z,17.89
2022-08-25T03:18:46.582Z,17.87
2022-08-25T03:19:33.737Z,17.84
2022-08-25T03:20:22.462Z,17.78
2022-08-25T03:21:11.389Z,17.78
2022-08-25T03:21:59.393Z,17.76
2022-08-25T03:22:45.992Z,17.72
2022-08-25T03:23:32.502Z,17.69
2022-08-25T03:24:19.208Z,17.72
2022-08-25T03:25:25.125Z,17.66
2022-08-25T03:26:30.266Z,17.64
2022-08-25T03:27:16.846Z,17.63
2022-08-25T03:28:04.104Z,17.61
2022-08-25T03:28:50.754Z,17.59
2022-08-25T03:29:37.243Z,17.56
2022-08-25T03:30:27.171Z,17.53
2022-08-25T03:31:14.274Z,17.52
2022-08-25T03:32:01.363Z,17.50
2022-08-25T03:32:48.076Z,17.51
2022-08-25T03:33:36.399Z,17.49
2022-08-25T03:34:25.494Z,17.48
2022-08-25T03:35:12.770Z,17.45
2022-08-25T03:35:59.528Z,17.41
2022-08-25T03:36:51.290Z,17.41
2022-08-25T03:37:38.393Z,17.38
2022-08-25T03:38:26.587Z,17.34
2022-08-25T03:39:15.369Z,17.34
2022-08-25T03:40:09.112Z,17.36
2022-08-25T03:41:02.066Z,17.34
2022-08-25T03:41:50.058Z,17.35
2022-08-25T03:42:44.776Z,17.35
2022-08-25T03:43:31.662Z,17.36
2022-08-25T03:44:19.861Z,17.39
2022-08-25T03:45:08.019Z,17.36
2022-08-25T03:45:54.838Z,17.35
2022-08-25T03:46:44.870Z,17.35
2022-08-25T03:47:31.442Z,17.33
2022-08-25T03:48:18.054Z,17.40
2022-08-25T03:49:06.778Z,17.38
2022-08-25T03:49:53.240Z,17.34
2022-08-25T03:50:52.084Z,17.34
2022-08-25T03:51:46.861Z,17.32
2022-08-25T03:52:33.473Z,17.31
2022-08-25T03:53:20.566Z,17.29
2022-08-25T03:54:09.234Z,17.27
2022-08-25T03:54:55.729Z,17.25
2022-08-25T03:55:42.289Z,17.24
2022-08-25T03:56:29.393Z,17.22
2022-08-25T03:57:15.886Z,17.22
2022-08-25T03:58:02.440Z,17.20
2022-08-25T03:58:49.423Z,17.20
2022-08-25T03:59:38.469Z,17.20
2022-08-25T04:00:25.026Z,17.19
2022-08-25T04:01:12.331Z,17.19
2022-08-25T04:01:59.119Z,17.18
2022-08-25T04:02:46.347Z,17.20
2022-08-25T04:03:32.901Z,17.19
2022-08-25T04:04:20.332Z,17.19
2022-08-25T04:05:07.933Z,17.20
2022-08-25T04:05:55.368Z,17.20
2022-08-25T04:06:44.115Z,17.23
2022-08-25T04:07:30.756Z,17.23
2022-08-25T04:08:18.986Z,17.26
2022-08-25T04:09:06.454Z,17.24
2022-08-25T04:09:56.189Z,17.21
2022-08-25T04:10:42.699Z,17.20
2022-08-25T04:11:29.397Z,17.18
2022-08-25T04:12:15.875Z,17.16
2022-08-25T04:13:05.554Z,17.15
2022-08-25T04:13:56.275Z,17.14
2022-08-25T04:14:42.798Z,17.09
2022-08-25T04:15:30.092Z,17.12
2022-08-25T04:16:21.838Z,17.11
2022-08-25T04:17:08.776Z,17.05
2022-08-25T04:17:55.668Z,17.04
2022-08-25T04:18:43.264Z,17.03
2022-08-25T04:19:29.834Z,17.06
2022-08-25T04:20:16.437Z,17.06
2022-08-25T04:21:05.893Z,17.03
2022-08-25T04:21:56.745Z,17.00
2022-08-25T04:22:45.022Z,17.02
2022-08-25T04:23:32.547Z,17.02
2022-08-25T04:24:20.500Z,17.01
2022-08-25T04:25:07.571Z,16.98
2022-08-25T04:25:54.125Z,16.99
2022-08-25T04:26:47.401Z,16.98
2022-08-25T04:27:35.704Z,16.96
2022-08-25T04:28:22.231Z,16.94
2022-08-25T04:29:11.879Z,16.94
2022-08-25T04:29:58.552Z,16.94
2022-08-25T04:30:47.182Z,16.92
2022-08-25T04:31:40.850Z,16.92
2022-08-25T04:32:28.300Z,16.91
2022-08-25T04:33:14.882Z,16.92
2022-08-25T04:34:03.312Z,16.90
2022-08-25T04:34:50.260Z,16.90
2022-08-25T04:35:36.867Z,16.89
2022-08-25T04:36:25.074Z,16.91
2022-08-25T04:37:11.833Z,16.95
2022-08-25T04:37:58.384Z,16.94
2022-08-25T04:38:47.434Z,16.94
2022-08-25T04:39:35.460Z,16.95
2022-08-25T04:40:28.741Z,16.96
2022-08-25T04:41:21.152Z,16.96
2022-08-25T04:42:07.690Z,16.95
2022-08-25T04:42:54.205Z,16.94
2022-08-25T04:43:43.948Z,16.95
2022-08-25T04:44:31.767Z,16.94
2022-08-25T04:45:18.488Z,16.96
2022-08-25T04:46:07.812Z,16.95
2022-08-25T04:46:55.689Z,16.96
2022-08-25T04:47:42.361Z,16.89
2022-08-25T04:48:28.806Z,16.96
2022-08-25T04:49:15.290Z,16.98
2022-08-25T04:50:01.790Z,16.96
2022-08-25T04:50:48.530Z,16.98
2022-08-25T04:51:39.584Z,16.99
2022-08-25T04:52:26.146Z,16.97
2022-08-25T04:53:12.694Z,16.98
2022-08-25T04:54:01.268Z,16.96
2022-08-25T04:54:47.769Z,17.00
2022-08-25T04:55:43.596Z,17.00
2022-08-25T04:56:30.249Z,16.99
2022-08-25T04:57:16.838Z,17.00
2022-08-25T04:58:03.462Z,17.01
2022-08-25T04:58:50.066Z,17.03
2022-08-25T04:59:36.572Z,17.05
2022-08-25T05:00:23.163Z,17.03
2022-08-25T05:01:15.531Z,17.07
2022-08-25T05:02:03.109Z,17.08
2022-08-25T05:02:50.161Z,17.10
2022-08-25T05:03:37.232Z,17.11
2022-08-25T05:04:28.442Z,17.12
2022-08-25T05:05:16.169Z,17.14
2022-08-25T05:06:04.483Z,17.11
2022-08-25T05:06:51.197Z,17.17
2022-08-25T05:07:37.803Z,17.17
2022-08-25T05:08:24.431Z,17.21
2022-08-25T05:09:11.173Z,17.24
2022-08-25T05:09:58.830Z,17.25
2022-08-25T05:10:45.305Z,17.27
2022-08-25T05:11:32.180Z,17.26
2022-08-25T05:12:21.615Z,17.26
2022-08-25T05:13:08.051Z,17.29
2022-08-25T05:13:56.865Z,17.28
2022-08-25T05:14:44.284Z,17.29
2022-08-25T05:15:49.171Z,17.30
2022-08-25T05:16:39.042Z,17.28
2022-08-25T05:17:25.550Z,17.30
2022-08-25T05:18:12.198Z,17.33
2022-08-25T05:18:58.973Z,17.35
2022-08-25T05:19:45.512Z,17.34
2022-08-25T05:20:32.126Z,17.39
2022-08-25T05:21:22.775Z,17.40
2022-08-25T05:22:09.579Z,17.39
2022-08-25T05:22:56.080Z,17.40
2022-08-25T05:23:46.831Z,17.41
2022-08-25T05:24:33.340Z,17.41
2022-08-25T05:25:20.071Z,17.42
2022-08-25T05:26:19.713Z,17.41
2022-08-25T05:27:07.038Z,17.45
2022-08-25T05:27:53.691Z,17.48
2022-08-25T05:28:42.074Z,17.51
2022-08-25T05:29:28.600Z,17.56
2022-08-25T05:30:15.075Z,17.58
2022-08-25T05:31:04.642Z,17.57
2022-08-25T05:31:53.977Z,17.56
2022-08-25T05:32:40.677Z,17.57
2022-08-25T05:33:31.395Z,17.62
2022-08-25T05:34:20.343Z,17.62
2022-08-25T05:35:08.131Z,17.64
2022-08-25T05:35:55.400Z,17.64
2022-08-25T05:36:43.652Z,17.65
2022-08-25T05:37:30.274Z,17.67
2022-08-25T05:38:16.844Z,17.65
2022-08-25T05:39:04.636Z,17.68
2022-08-25T05:39:51.309Z,17.76
2022-08-25T05:40:38.110Z,17.76
2022-08-25T05:41:30.682Z,17.71
2022-08-25T05:42:17.370Z,17.71
2022-08-25T05:43:03.855Z,17.74
2022-08-25T05:43:50.687Z,17.76
2022-08-25T05:44:37.378Z,17.80
2022-08-25T05:45:24.632Z,17.80
2022-08-25T05:46:12.491Z,17.82
2022-08-25T05:46:59.399Z,17.84
2022-08-25T05:47:45.935Z,17.84
2022-08-25T05:48:32.543Z,17.87
2022-08-25T05:49:19.212Z,17.90
2022-08-25T05:50:06.637Z,17.92
2022-08-25T05:50:56.649Z,17.95
2022-08-25T05:51:43.158Z,17.89
2022-08-25T05:52:29.752Z,17.95
2022-08-25T05:53:16.224Z,17.96
2022-08-25T05:54:03.792Z,17.99
2022-08-25T05:54:50.246Z,18.00
2022-08-25T05:55:36.783Z,18.01
2022-08-25T05:56:23.292Z,17.99
2022-08-25T05:57:09.780Z,18.04
2022-08-25T05:57:56.355Z,18.04
2022-08-25T05:58:44.367Z,18.05
2022-08-25T05:59:30.970Z,18.09
2022-08-25T06:00:17.906Z,18.11
2022-08-25T06:01:23.679Z,18.12
2022-08-25T06:02:30.468Z,18.15
2022-08-25T06:03:18.306Z,18.15
2022-08-25T06:04:06.488Z,18.22
2022-08-25T06:04:54.383Z,18.23
2022-08-25T06:05:41.299Z,18.27
2022-08-25T06:06:27.836Z,18.27
2022-08-25T06:07:14.414Z,18.30
2022-08-25T06:08:00.984Z,18.32
2022-08-25T06:08:47.467Z,18.34
2022-08-25T06:09:34.128Z,18.39
2022-08-25T06:10:20.910Z,18.43
2022-08-25T06:11:07.549Z,18.47
2022-08-25T06:11:55.255Z,18.48
2022-08-25T06:12:44.747Z,18.49
2022-08-25T06:13:31.216Z,18.50
2022-08-25T06:14:17.698Z,18.52
2022-08-25T06:15:05.572Z,18.55
2022-08-25T06:15:58.063Z,18.53
2022-08-25T06:16:44.624Z,18.56
2022-08-25T06:17:32.024Z,18.57
2022-08-25T06:18:18.469Z,18.58
2022-08-25T06:19:06.244Z,18.62
2022-08-25T06:19:53.777Z,18.64
2022-08-25T06:20:40.239Z,18.68
2022-08-25T06:21:26.734Z,18.69
2022-08-25T06:22:13.183Z,18.74
2022-08-25T06:23:02.642Z,18.76
2022-08-25T06:23:49.341Z,18.80
2022-08-25T06:24:35.937Z,18.81
2022-08-25T06:25:26.288Z,18.85
2022-08-25T06:26:21.049Z,18.91
2022-08-25T06:27:08.244Z,18.96
2022-08-25T06:27:55.179Z,18.98
2022-08-25T06:28:42.845Z,19.02
2022-08-25T06:29:29.379Z,19.04
2022-08-25T06:30:23.732Z,19.05
2022-08-25T06:31:11.205Z,19.08
2022-08-25T06:31:57.840Z,19.12
2022-08-25T06:32:45.664Z,19.14
2022-08-25T06:33:32.718Z,19.16
2022-08-25T06:34:19.633Z,19.21
2022-08-25T06:35:14.396Z,19.31
2022-08-25T06:36:01.199Z,19.37
2022-08-25T06:36:49.426Z,19.57
2022-08-25T06:37:36.319Z,19.65
2022-08-25T06:38:24.392Z,19.62
2022-08-25T06:39:11.144Z,19.67
2022-08-25T06:39:57.789Z,19.79
2022-08-25T06:40:47.885Z,19.85
2022-08-25T06:41:36.803Z,19.84
2022-08-25T06:42:23.753Z,19.88
2022-08-25T06:43:10.477Z,19.96
2022-08-25T06:44:04.865Z,20.01
2022-08-25T06:44:52.189Z,20.09
2022-08-25T06:45:39.886Z,20.10
2022-08-25T06:46:31.727Z,20.09
2022-08-25T06:47:23.252Z,20.15
2022-08-25T06:48:10.665Z,20.19
2022-08-25T06:48:57.835Z,20.19
2022-08-25T06:49:45.565Z,20.26
2022-08-25T06:50:32.107Z,20.29
2022-08-25T06:51:20.478Z,20.43
2022-08-25T06:52:07.136Z,20.41
2022-08-25T06:52:53.653Z,20.44
2022-08-25T06:53:40.192Z,20.53
2022-08-25T06:54:26.681Z,20.49
2022-08-25T06:55:13.174Z,20.64
2022-08-25T06:56:03.329Z,20.62
2022-08-25T06:56:52.461Z,20.66
2022-08-25T06:57:39.039Z,20.64
2022-08-25T06:58:25.805Z,20.79
2022-08-25T06:59:12.759Z,20.80
2022-08-25T06:59:59.226Z,20.83
2022-08-25T07:00:45.745Z,21.03
2022-08-25T07:01:34.559Z,21.01
2022-08-25T07:02:21.905Z,21.01
2022-08-25T07:03:09.144Z,21.03
2022-08-25T07:04:00.009Z,21.03
2022-08-25T07:04:46.559Z,21.14
2022-08-25T07:05:43.623Z,21.19
2022-08-25T07:06:35.253Z,21.14
2022-08-25T07:07:22.474Z,21.27
2022-08-25T07:08:08.887Z,21.27
2022-08-25T07:08:55.457Z,21.32
2022-08-25T07:09:41.895Z,21.32
2022-08-25T07:10:28.329Z,21.39
2022-08-25T07:11:20.849Z,21.50
2022-08-25T07:12:08.198Z,21.52
2022-08-25T07:12:54.600Z,21.48
2022-08-25T07:13:41.962Z,21.50
2022-08-25T07:14:28.504Z,21.54
2022-08-25T07:15:20.402Z,21.56
2022-08-25T07:16:08.625Z,21.60
2022-08-25T07:16:55.159Z,21.65
2022-08-25T07:17:41.644Z,21.71
2022-08-25T07:18:30.328Z,21.77
2022-08-25T07:19:20.540Z,21.85
2022-08-25T07:20:08.794Z,21.89
2022-08-25T07:21:00.487Z,21.85
2022-08-25T07:21:51.908Z,22.07
2022-08-25T07:22:38.338Z,22.20
2022-08-25T07:23:26.252Z,22.16
2022-08-25T07:24:14.876Z,22.30
2022-08-25T07:25:01.398Z,22.36
2022-08-25T07:25:48.889Z,22.36
2022-08-25T07:26:38.254Z,22.34
2022-08-25T07:27:26.223Z,22.41
2022-08-25T07:28:13.284Z,22.36
2022-08-25T07:28:59.939Z,22.46
2022-08-25T07:29:49.967Z,22.53
2022-08-25T07:30:36.466Z,22.51
2022-08-25T07:31:29.456Z,22.52
2022-08-25T07:32:16.524Z,22.65
2022-08-25T07:33:06.769Z,22.68
2022-08-25T07:34:12.612Z,22.76
2022-08-25T07:35:19.227Z,22.79
2022-08-25T07:36:06.307Z,22.90
2022-08-25T07:36:54.439Z,22.88
2022-08-25T07:37:50.042Z,22.99
2022-08-25T07:38:37.521Z,23.01
2022-08-25T07:39:25.990Z,23.01
2022-08-25T07:40:21.487Z,23.14
2022-08-25T07:41:07.999Z,23.11
2022-08-25T07:41:54.467Z,23.26
2022-08-25T07:42:42.494Z,23.34
2022-08-25T07:43:29.373Z,23.38
2022-08-25T07:44:16.197Z,23.49
2022-08-25T07:45:05.224Z,23.53
2022-08-25T07:45:53.820Z,23.56
2022-08-25T07:46:40.945Z,23.61
2022-08-25T07:47:29.134Z,23.69
2022-08-25T07:48:19.704Z,23.69
2022-08-25T07:49:16.405Z,23.67
2022-08-25T07:50:05.668Z,23.73
2022-08-25T07:50:52.274Z,23.74
2022-08-25T07:51:38.896Z,23.71
2022-08-25T07:52:47.812Z,23.68
2022-08-25T07:53:39.985Z,23.70
2022-08-25T07:54:31.302Z,23.71
2022-08-25T07:55:21.253Z,23.77
2022-08-25T07:56:13.757Z,23.80
2022-08-25T07:57:00.232Z,23.88
2022-08-25T07:57:49.858Z,24.05
2022-08-25T07:58:43.547Z,24.08
2022-08-25T07:59:39.452Z,24.10
2022-08-25T08:00:29.905Z,24.15
2022-08-25T08:01:19.452Z,24.20
2022-08-25T08:02:17.779Z,24.07
2022-08-25T08:03:15.978Z,24.17
2022-08-25T08:04:10.541Z,24.37
2022-08-25T08:04:57.664Z,24.39
2022-08-25T08:05:44.437Z,24.36
2022-08-25T08:06:32.366Z,24.37
2022-08-25T08:07:22.867Z,24.37
2022-08-25T08:08:09.618Z,24.41
2022-08-25T08:08:57.985Z,24.36
2022-08-25T08:09:46.468Z,24.33
2022-08-25T08:11:03.257Z,24.47
2022-08-25T08:11:53.828Z,24.63
2022-08-25T08:12:42.367Z,24.72
2022-08-25T08:13:28.849Z,24.74
2022-08-25T08:14:16.433Z,24.68
2022-08-25T08:15:04.707Z,24.74
2022-08-25T08:15:57.159Z,24.79
2022-08-25T08:16:43.752Z,24.96
2022-08-25T08:17:31.839Z,24.98
2022-08-25T08:18:18.396Z,24.98
2022-08-25T08:19:06.012Z,24.94
2022-08-25T08:19:54.082Z,24.90
2022-08-25T08:20:44.517Z,24.91
2022-08-25T08:21:33.672Z,24.98
2022-08-25T08:22:20.913Z,25.01
2022-08-25T08:23:07.733Z,25.21
2022-08-25T08:23:58.879Z,25.24
2022-08-25T08:24:54.943Z,25.22
2022-08-25T08:25:42.972Z,25.19
2022-08-25T08:26:55.182Z,25.20
2022-08-25T08:27:37.304Z,25.20
2022-08-25T08:28:27.902Z,25.30
2022-08-25T08:29:15.291Z,25.25
2022-08-25T08:30:04.272Z,25.41
2022-08-25T08:30:53.108Z,25.40
2022-08-25T08:31:40.605Z,25.39
2022-08-25T08:33:05.938Z,25.44
2022-08-25T08:33:42.057Z,25.64
2022-08-25T08:34:30.149Z,25.56
2022-08-25T08:35:18.871Z,25.51
2022-08-25T08:36:09.425Z,25.47
2022-08-25T08:36:57.321Z,25.47
2022-08-25T08:37:43.908Z,25.73
2022-08-25T08:38:30.865Z,25.67
2022-08-25T08:39:17.812Z,25.75
2022-08-25T08:40:06.244Z,25.85
2022-08-25T08:42:09.566Z,26.04
2022-08-25T08:43:18.933Z,25.93
2022-08-25T08:44:26.457Z,25.86
2022-08-25T08:45:26.600Z,25.80
2022-08-25T08:46:14.178Z,25.84
2022-08-25T08:47:08.951Z,25.91
2022-08-25T08:48:33.134Z,25.98
2022-08-25T08:49:37.908Z,26.23
2022-08-25T08:51:09.945Z,26.40
2022-08-25T08:52:02.868Z,26.48
2022-08-25T08:52:53.695Z,26.49
2022-08-25T08:54:23.047Z,26.51
2022-08-25T08:55:24.595Z,26.64
2022-08-25T08:56:25.802Z,26.76
2022-08-25T08:57:28.001Z,26.76
2022-08-25T08:58:26.130Z,26.83
2022-08-25T08:59:30.100Z,26.99
2022-08-25T09:00:17.998Z,27.06
2022-08-25T09:01:05.977Z,27.12
2022-08-25T09:01:59.304Z,27.11
2022-08-25T09:03:11.974Z,27.19
2022-08-25T09:04:18.273Z,27.19
2022-08-25T09:05:19.138Z,27.21
2022-08-25T09:06:18.153Z,27.24
2022-08-25T09:07:12.945Z,27.16
2022-08-25T09:08:11.366Z,27.19
2022-08-25T09:09:02.506Z,27.32
2022-08-25T09:09:54.707Z,27.36
2022-08-25T09:11:03.443Z,27.38
2022-08-25T09:12:12.178Z,27.31
2022-08-25T09:13:15.497Z,27.18
2022-08-25T09:14:18.344Z,27.24
2022-08-25T09:15:58.144Z,27.35
2022-08-25T09:16:55.008Z,27.56
2022-08-25T09:17:54.828Z,27.62
2022-08-25T09:18:56.475Z,27.57
2022-08-25T09:20:20.795Z,27.60
2022-08-25T09:21:19.789Z,27.61
2022-08-25T09:22:36.339Z,27.78
2022-08-25T09:23:39.878Z,27.84
2022-08-25T09:24:32.102Z,27.75
2022-08-25T09:25:56.833Z,27.76
2022-08-25T09:26:43.225Z,27.86
2022-08-25T09:28:05.153Z,27.93
2022-08-25T09:29:10.861Z,27.86
2022-08-25T09:30:11.600Z,27.86
2022-08-25T09:31:19.822Z,27.85
2022-08-25T09:32:07.604Z,27.81
2022-08-25T09:33:03.970Z,27.80
2022-08-25T09:33:57.127Z,27.89
2022-08-25T09:34:45.175Z,27.84
2022-08-25T09:35:35.175Z,27.89
2022-08-25T09:36:24.647Z,27.95
2022-08-25T09:37:11.723Z,28.10
2022-08-25T09:38:07.484Z,28.25
2022-08-25T09:38:55.643Z,28.28
2022-08-25T09:39:42.692Z,28.30
2022-08-25T09:40:34.139Z,28.35
2022-08-25T09:41:51.419Z,28.20
2022-08-25T09:42:58.637Z,28.17
2022-08-25T09:43:54.609Z,28.10
2022-08-25T09:44:44.461Z,28.18
2022-08-25T09:45:45.534Z,28.12
2022-08-25T09:46:32.062Z,28.16
2022-08-25T09:47:18.568Z,28.11
2022-08-25T09:48:20.818Z,28.21
2022-08-25T09:49:13.252Z,28.21
2022-08-25T09:50:04.476Z,28.25
2022-08-25T09:50:57.923Z,28.32
2022-08-25T09:51:44.804Z,28.44
2022-08-25T09:52:41.799Z,28.59
2022-08-25T09:53:33.900Z,28.61
2022-08-25T09:54:21.671Z,28.66
2022-08-25T09:55:14.845Z,28.61
2022-08-25T09:56:05.862Z,28.52
2022-08-25T09:57:00.456Z,28.41
2022-08-25T09:57:52.884Z,28.60
2022-08-25T09:58:39.726Z,28.52
2022-08-25T09:59:36.113Z,28.57
2022-08-25T10:00:33.652Z,28.57
2022-08-25T10:01:23.897Z,28.49
2022-08-25T10:02:28.389Z,28.50
2022-08-25T10:03:25.100Z,28.58
2022-08-25T10:04:19.008Z,28.60
2022-08-25T10:05:19.848Z,28.63
2022-08-25T10:06:15.741Z,28.63
2022-08-25T10:07:20.438Z,28.67
2022-08-25T10:08:14.697Z,28.76
2022-08-25T10:09:07.022Z,28.81
2022-08-25T10:10:02.534Z,28.87
2022-08-25T10:10:55.040Z,28.96
2022-08-25T10:11:48.292Z,28.89
2022-08-25T10:12:44.761Z,29.09
2022-08-25T10:13:46.711Z,29.03
2022-08-25T10:14:36.352Z,29.12
2022-08-25T10:15:35.314Z,29.12
2022-08-25T10:16:32.235Z,29.15
2022-08-25T10:17:30.450Z,29.17
2022-08-25T10:18:29.329Z,29.18
2022-08-25T10:19:21.804Z,29.12
2022-08-25T10:20:10.970Z,29.07
2022-08-25T10:21:15.614Z,29.16
2022-08-25T10:22:22.424Z,29.27
2022-08-25T10:23:13.372Z,29.37
2022-08-25T10:24:02.775Z,29.29
2022-08-25T10:24:49.740Z,29.28
2022-08-25T10:25:59.041Z,29.14
2022-08-25T10:27:15.684Z,29.08
2022-08-25T10:28:29.628Z,28.89
2022-08-25T10:29:53.936Z,29.01
2022-08-25T10:31:05.685Z,29.07
2022-08-25T10:32:13.473Z,29.31
2022-08-25T10:33:19.819Z,29.29
2022-08-25T10:34:31.180Z,29.25
2022-08-25T10:35:31.215Z,29.25
2022-08-25T10:36:27.750Z,29.23
2022-08-25T10:37:41.293Z,29.19
2022-08-25T10:38:37.144Z,29.17
2022-08-25T10:39:40.491Z,29.37
2022-08-25T10:40:32.506Z,29.39
2022-08-25T10:41:43.749Z,29.30
2022-08-25T10:42:39.126Z,29.38
2022-08-25T10:43:32.923Z,29.43
2022-08-25T10:44:50.120Z,29.50
2022-08-25T10:46:18.713Z,29.37
2022-08-25T10:47:50.170Z,29.37
2022-08-25T10:48:51.430Z,29.59
2022-08-25T10:49:47.771Z,29.56
2022-08-25T10:50:45.753Z,29.66
2022-08-25T10:51:50.969Z,29.64
2022-08-25T10:53:05.538Z,29.68
2022-08-25T10:54:04.656Z,29.82
2022-08-25T10:55:12.974Z,29.78
2022-08-25T10:56:13.066Z,29.82